createdAt,value
2022-09-20T00:00:40.008Z,98796.50
2022-09-20T00:03:06.751Z,98790.25
2022-09-20T00:05:37.550Z,98787.88
2022-09-20T00:08:05.746Z,98784.81
2022-09-20T00:10:39.429Z,98778.81
2022-09-20T00:13:07.749Z,98784.13
2022-09-20T00:15:35.120Z,98783.59
2022-09-20T00:18:01.770Z,98782.50
2022-09-20T00:20:28.600Z,98779.03
2022-09-20T00:22:55.656Z,98775.16
2022-09-20T00:25:22.662Z,98772.63
2022-09-20T00:27:49.361Z,98777.38
2022-09-20T00:30:16.072Z,98779.72
2022-09-20T00:32:42.711Z,98782.66
2022-09-20T00:35:11.319Z,98783.34
2022-09-20T00:37:40.192Z,98781.13
2022-09-20T00:40:10.047Z,98778.34
2022-09-20T00:42:37.027Z,98777.63
2022-09-20T00:45:06.819Z,98778.91
2022-09-20T00:47:43.624Z,98783.63
2022-09-20T00:50:35.234Z,98780.13
2022-09-20T00:53:09.963Z,98780.94
2022-09-20T00:55:40.061Z,98777.31
2022-09-20T00:58:07.014Z,98780.66
2022-09-20T01:00:33.817Z,98774.28
2022-09-20T01:03:03.890Z,98782.34
2022-09-20T01:05:30.860Z,98779.81
2022-09-20T01:07:57.931Z,98779.81
2022-09-20T01:10:24.588Z,98783.00
2022-09-20T01:12:52.494Z,98779.25
2022-09-20T01:15:19.954Z,98771.16
2022-09-20T01:17:48.895Z,98774.47
2022-09-20T01:20:32.775Z,98778.94
2022-09-20T01:23:08.775Z,98778.81
2022-09-20T01:25:47.636Z,98778.41
2022-09-20T01:28:14.698Z,98775.47
2022-09-20T01:30:48.364Z,98777.13
2022-09-20T01:33:28.919Z,98790.06
2022-09-20T01:35:57.485Z,98779.75
2022-09-20T01:38:34.601Z,98773.81
2022-09-20T01:41:11.425Z,98767.41
2022-09-20T01:43:49.631Z,98766.84
2022-09-20T01:46:31.193Z,98775.06
2022-09-20T01:49:07.330Z,98772.13
2022-09-20T01:52:06.261Z,98769.91
2022-09-20T01:54:58.050Z,98773.09
2022-09-20T01:57:54.022Z,98763.38
2022-09-20T02:00:23.533Z,98770.03
2022-09-20T02:03:26.605Z,98766.91
2022-09-20T02:06:23.643Z,98768.41
2022-09-20T02:09:08.391Z,98771.56
2022-09-20T02:11:38.121Z,98766.00
2022-09-20T02:14:19.130Z,98772.53
2022-09-20T02:17:13.987Z,98772.69
2022-09-20T02:19:52.890Z,98767.53
2022-09-20T02:22:31.956Z,98765.31
2022-09-20T02:25:09.617Z,98764.03
2022-09-20T02:27:53.848Z,98763.78
2022-09-20T02:30:35.195Z,98749.66
2022-09-20T02:33:36.196Z,98761.13
2022-09-20T02:36:27.325Z,98754.66
2022-09-20T02:39:00.093Z,98748.44
2022-09-20T02:41:45.681Z,98760.00
2022-09-20T02:44:33.687Z,98760.84
2022-09-20T02:47:12.580Z,98761.38
2022-09-20T02:49:53.814Z,98768.88
2022-09-20T02:52:28.252Z,98761.16
2022-09-20T02:55:25.797Z,98770.59
2022-09-20T02:58:29.960Z,98768.41
2022-09-20T03:01:17.622Z,98774.41
2022-09-20T03:03:59.938Z,98774.69
2022-09-20T03:06:41.776Z,98778.47
2022-09-20T03:10:05.044Z,98771.63
2022-09-20T03:12:38.351Z,98778.16
2022-09-20T03:15:32.725Z,98781.81
2022-09-20T03:18:22.292Z,98777.34
2022-09-20T03:21:03.766Z,98783.50
2022-09-20T03:23:54.938Z,98782.91
2022-09-20T03:26:30.616Z,98784.59
2022-09-20T03:29:02.174Z,98783.78
2022-09-20T03:31:47.659Z,98784.19
2022-09-20T03:34:37.851Z,98781.81
2022-09-20T03:37:29.487Z,98781.53
2022-09-20T03:40:30.374Z,98784.88
2022-09-20T03:43:04.774Z,98791.09
2022-09-20T03:45:43.526Z,98786.94
2022-09-20T03:48:39.759Z,98787.50
2022-09-20T03:51:33.800Z,98792.78
2022-09-20T03:54:23.108Z,98792.91
2022-09-20T03:57:04.002Z,98792.91
2022-09-20T04:00:11.083Z,98795.28
2022-09-20T04:02:40.954Z,98796.25
2022-09-20T04:05:10.646Z,98790.44
2022-09-20T04:08:30.054Z,98794.31
2022-09-20T04:11:15.816Z,98794.72
2022-09-20T04:14:05.912Z,98806.41
2022-09-20T04:16:58.971Z,98801.81
2022-09-20T04:19:45.681Z,98800.56
2022-09-20T04:22:12.580Z,98802.38
2022-09-20T04:24:53.209Z,98797.50
2022-09-20T04:27:27.831Z,98802.66
2022-09-20T04:30:05.555Z,98800.16
2022-09-20T04:32:54.279Z,98796.00
2022-09-20T04:36:10.360Z,98795.16
2022-09-20T04:38:37.294Z,98799.75
2022-09-20T04:41:22.359Z,98803.94
2022-09-20T04:44:09.846Z,98801.56
2022-09-20T04:46:56.204Z,98807.69
2022-09-20T04:49:25.972Z,98805.84
2022-09-20T04:51:58.288Z,98809.63
2022-09-20T04:54:47.301Z,98816.00
2022-09-20T04:57:23.601Z,98817.69
2022-09-20T05:00:07.449Z,98819.91
2022-09-20T05:02:50.684Z,98826.53
2022-09-20T05:05:51.482Z,98827.66
2022-09-20T05:08:42.610Z,98828.75
2022-09-20T05:11:30.442Z,98834.84
2022-09-20T05:14:40.995Z,98841.53
2022-09-20T05:17:37.344Z,98839.03
2022-09-20T05:20:36.259Z,98840.13
2022-09-20T05:23:13.522Z,98840.53
2022-09-20T05:26:10.658Z,98843.88
2022-09-20T05:28:49.769Z,98838.00
2022-09-20T05:31:35.290Z,98841.78
2022-09-20T05:34:15.221Z,98837.63
2022-09-20T05:37:20.628Z,98843.13
2022-09-20T05:39:54.989Z,98846.75
2022-09-20T05:42:41.436Z,98851.31
2022-09-20T05:45:43.581Z,98856.59
2022-09-20T05:48:32.492Z,98851.25
2022-09-20T05:51:23.884Z,98866.31
2022-09-20T05:54:03.225Z,98865.22
2022-09-20T05:56:36.277Z,98863.56
2022-09-20T05:59:14.803Z,98866.22
2022-09-20T06:01:55.913Z,98873.31
2022-09-20T06:04:36.348Z,98869.03
2022-09-20T06:07:12.182Z,98876.50
2022-09-20T06:09:53.343Z,98884.44
2022-09-20T06:12:31.305Z,98871.47
2022-09-20T06:15:12.727Z,98873.63
2022-09-20T06:18:03.548Z,98878.56
2022-09-20T06:20:37.748Z,98878.75
2022-09-20T06:23:05.677Z,98873.06
2022-09-20T06:25:57.379Z,98871.16
2022-09-20T06:28:30.821Z,98877.81
2022-09-20T06:30:58.192Z,98878.56
2022-09-20T06:33:26.693Z,98875.00
2022-09-20T06:35:59.259Z,98879.63
2022-09-20T06:38:59.625Z,98882.44
2022-09-20T06:41:28.425Z,98884.78
2022-09-20T06:43:59.685Z,98890.53
2022-09-20T06:46:30.645Z,98891.06
2022-09-20T06:48:57.826Z,98892.72
2022-09-20T06:51:26.359Z,98895.19
2022-09-20T06:53:58.235Z,98905.50
2022-09-20T06:56:30.042Z,98907.84
2022-09-20T06:58:57.127Z,98895.81
2022-09-20T07:01:30.250Z,98901.00
2022-09-20T07:03:59.741Z,98892.56
2022-09-20T07:06:29.289Z,98896.75
2022-09-20T07:08:55.899Z,98900.47
2022-09-20T07:11:23.385Z,98898.19
2022-09-20T07:13:52.230Z,98900.91
2022-09-20T07:16:18.984Z,98902.50
2022-09-20T07:18:47.351Z,98904.47
2022-09-20T07:21:19.107Z,98903.19
2022-09-20T07:23:46.185Z,98908.00
2022-09-20T07:26:22.053Z,98908.72
2022-09-20T07:28:49.619Z,98910.25
2022-09-20T07:31:18.505Z,98910.56
2022-09-20T07:33:45.271Z,98912.00
2022-09-20T07:36:15.015Z,98910.06
2022-09-20T07:38:43.142Z,98914.84
2022-09-20T07:41:10.613Z,98909.09
2022-09-20T07:43:37.350Z,98910.44
2022-09-20T07:46:04.162Z,98915.94
2022-09-20T07:48:33.315Z,98917.69
2022-09-20T07:51:08.604Z,98922.50
2022-09-20T07:53:36.550Z,98918.06
2022-09-20T07:56:04.629Z,98921.75
2022-09-20T07:58:34.099Z,98923.81
2022-09-20T08:01:03.737Z,98924.22
2022-09-20T08:03:31.863Z,98921.47
2022-09-20T08:06:03.138Z,98923.91
2022-09-20T08:08:36.427Z,98926.84
2022-09-20T08:11:05.553Z,98931.72
2022-09-20T08:16:27.735Z,98933.13
2022-09-20T08:18:57.326Z,98940.44
2022-09-20T08:21:25.083Z,98934.78
2022-09-20T08:23:51.849Z,98937.22
2022-09-20T08:26:24.789Z,98947.69
2022-09-20T08:28:53.689Z,98938.63
2022-09-20T08:31:22.319Z,98942.47
2022-09-20T08:33:53.085Z,98939.03
2022-09-20T08:36:22.158Z,98948.34
2022-09-20T08:41:40.195Z,98935.44
2022-09-20T08:44:25.118Z,98936.59
2022-09-20T08:47:23.159Z,98929.47
2022-09-20T08:49:56.743Z,98926.75
2022-09-20T08:52:37.212Z,98932.06
2022-09-20T08:55:13.791Z,98935.22
2022-09-20T08:57:40.446Z,98941.69
2022-09-20T09:00:07.908Z,98943.16
2022-09-20T09:02:35.533Z,98938.84
2022-09-20T09:05:03.461Z,98938.16
2022-09-20T09:07:30.831Z,98926.50
2022-09-20T09:09:57.546Z,98933.25
2022-09-20T09:12:31.152Z,98928.59
2022-09-20T09:15:00.458Z,98926.00
2022-09-20T09:17:29.059Z,98924.88
2022-09-20T09:19:59.393Z,98920.75
2022-09-20T09:22:39.703Z,98930.25
2022-09-20T09:25:21.673Z,98935.38
2022-09-20T09:27:57.560Z,98927.38
2022-09-20T09:30:33.392Z,98925.41
2022-09-20T09:33:26.517Z,98920.41
2022-09-20T09:35:56.960Z,98917.09
2022-09-20T09:38:29.957Z,98919.09
2022-09-20T09:41:01.809Z,98922.22
2022-09-20T09:43:33.133Z,98918.41
2022-09-20T09:46:23.789Z,98920.91
2022-09-20T09:49:12.566Z,98923.78
2022-09-20T09:51:42.533Z,98916.63
2022-09-20T09:54:18.207Z,98912.66
2022-09-20T09:57:07.126Z,98922.69
2022-09-20T09:59:51.978Z,98919.13
2022-09-20T10:02:48.180Z,98915.13
2022-09-20T10:05:23.689Z,98915.25
2022-09-20T10:08:29.159Z,98912.63
2022-09-20T10:11:07.132Z,98917.13
2022-09-20T10:14:15.795Z,98914.97
2022-09-20T10:16:51.691Z,98913.72
2022-09-20T10:19:55.672Z,98913.34
2022-09-20T10:22:34.683Z,98912.75
2022-09-20T10:25:27.900Z,98922.13
2022-09-20T10:28:05.938Z,98908.28
2022-09-20T10:31:27.654Z,98901.31
2022-09-20T10:34:09.671Z,98906.75
2022-09-20T10:36:39.634Z,98896.97
2022-09-20T10:39:25.364Z,98896.91
2022-09-20T10:42:41.744Z,98893.03
2022-09-20T10:46:14.407Z,98890.28
2022-09-20T10:48:35.731Z,98902.75
2022-09-20T10:51:19.619Z,98903.09
2022-09-20T10:54:08.567Z,98904.31
2022-09-20T10:56:47.166Z,98912.69
2022-09-20T10:59:27.940Z,98908.25
2022-09-20T11:02:14.265Z,98909.81
2022-09-20T11:05:26.414Z,98904.00
2022-09-20T11:07:58.464Z,98905.00
2022-09-20T11:10:52.523Z,98906.78
2022-09-20T11:13:27.453Z,98913.09
2022-09-20T11:16:03.277Z,98911.75
2022-09-20T11:18:39.236Z,98904.31
2022-09-20T11:21:21.171Z,98905.78
2022-09-20T11:24:26.735Z,98904.50
2022-09-20T11:26:57.027Z,98895.78
2022-09-20T11:29:36.423Z,98894.88
2022-09-20T11:32:13.920Z,98889.78
2022-09-20T11:34:51.322Z,98890.47
2022-09-20T11:37:19.046Z,98900.78
2022-09-20T11:40:13.487Z,98891.41
2022-09-20T11:42:41.746Z,98893.00
2022-09-20T11:45:12.604Z,98893.47
2022-09-20T11:47:54.421Z,98894.38
2022-09-20T11:50:29.309Z,98888.78
2022-09-20T11:53:31.148Z,98890.94
2022-09-20T11:56:18.399Z,98890.53
2022-09-20T11:58:48.314Z,98891.19
2022-09-20T12:01:28.260Z,98887.72
2022-09-20T12:04:14.572Z,98884.13
2022-09-20T12:06:46.442Z,98881.47
2022-09-20T12:09:35.448Z,98887.78
2022-09-20T12:12:32.247Z,98883.16
2022-09-20T12:15:01.259Z,98878.81
2022-09-20T12:17:46.096Z,98877.00
2022-09-20T12:20:44.958Z,98880.31
2022-09-20T12:23:40.440Z,98882.97
2022-09-20T12:26:14.203Z,98877.00
2022-09-20T12:28:44.679Z,98881.66
2022-09-20T12:31:29.228Z,98874.75
2022-09-20T12:34:10.076Z,98881.44
2022-09-20T12:36:38.927Z,98862.75
2022-09-20T12:39:06.934Z,98867.81
2022-09-20T12:41:55.122Z,98857.09
2022-09-20T12:44:49.326Z,98855.63
2022-09-20T12:47:20.148Z,98862.66
2022-09-20T12:50:05.699Z,98862.44
2022-09-20T12:52:50.425Z,98861.38
2022-09-20T12:55:30.000Z,98865.19
2022-09-20T12:58:14.606Z,98859.66
2022-09-20T13:00:49.085Z,98854.22
2022-09-20T13:03:15.643Z,98866.63
2022-09-20T13:05:46.615Z,98871.75
2022-09-20T13:08:18.177Z,98854.94
2022-09-20T13:11:00.662Z,98860.53
2022-09-20T13:13:58.320Z,98863.81
2022-09-20T13:16:47.862Z,98865.00
2022-09-20T13:19:23.600Z,98857.66
2022-09-20T13:21:57.739Z,98859.75
2022-09-20T13:24:25.984Z,98852.09
2022-09-20T13:26:54.279Z,98855.94
2022-09-20T13:29:47.349Z,98853.63
2022-09-20T13:32:22.814Z,98861.44
2022-09-20T13:35:11.277Z,98861.59
2022-09-20T13:37:49.419Z,98858.47
2022-09-20T13:40:20.383Z,98860.31
2022-09-20T13:42:49.263Z,98858.88
2022-09-20T13:45:17.178Z,98864.91
2022-09-20T13:47:48.992Z,98862.25
2022-09-20T13:50:23.243Z,98854.78
2022-09-20T13:52:55.540Z,98855.94
2022-09-20T13:55:34.407Z,98852.00
2022-09-20T13:58:04.296Z,98858.50
2022-09-20T14:00:31.865Z,98852.25
2022-09-20T14:02:59.403Z,98851.44
2022-09-20T14:05:28.995Z,98857.34
2022-09-20T14:07:56.746Z,98855.41
2022-09-20T14:10:29.155Z,98856.59
2022-09-20T14:12:56.069Z,98859.06
2022-09-20T14:15:22.885Z,98860.97
2022-09-20T14:17:52.260Z,98868.88
2022-09-20T14:20:18.969Z,98880.28
2022-09-20T14:22:46.063Z,98879.81
2022-09-20T14:25:15.510Z,98878.16
2022-09-20T14:27:42.458Z,98890.50
2022-09-20T14:30:37.321Z,98895.09
2022-09-20T14:33:05.582Z,98881.13
2022-09-20T14:35:32.656Z,98879.66
2022-09-20T14:38:01.931Z,98882.47
2022-09-20T14:40:33.499Z,98883.16
2022-09-20T14:43:07.433Z,98874.84
2022-09-20T14:45:40.329Z,98872.84
2022-09-20T14:48:29.630Z,98876.66
2022-09-20T14:51:27.687Z,98874.00
2022-09-20T14:54:06.606Z,98871.31
2022-09-20T14:56:38.909Z,98868.03
2022-09-20T14:59:11.700Z,98867.81
2022-09-20T15:01:41.350Z,98872.63
2022-09-20T15:04:10.235Z,98869.66
2022-09-20T15:06:40.084Z,98870.47
2022-09-20T15:09:06.997Z,98870.41
2022-09-20T15:11:33.753Z,98870.53
2022-09-20T15:14:00.426Z,98872.75
2022-09-20T15:16:27.718Z,98873.63
2022-09-20T15:18:55.034Z,98875.50
2022-09-20T15:21:22.037Z,98877.16
2022-09-20T15:23:48.794Z,98871.50
2022-09-20T15:26:16.702Z,98877.47
2022-09-20T15:28:43.365Z,98878.91
2022-09-20T15:31:10.487Z,98877.44
2022-09-20T15:33:37.237Z,98877.25
2022-09-20T15:36:04.098Z,98882.06
2022-09-20T15:38:30.852Z,98871.31
2022-09-20T15:41:00.508Z,98870.25
2022-09-20T15:43:28.300Z,98873.41
2022-09-20T15:45:57.000Z,98876.00
2022-09-20T15:48:26.283Z,98872.06
2022-09-20T15:51:04.520Z,98861.06
2022-09-20T15:53:39.503Z,98869.19
2022-09-20T15:56:24.109Z,98864.75
2022-09-20T15:59:01.678Z,98871.53
2022-09-20T16:01:30.131Z,98863.56
2022-09-20T16:03:56.830Z,98864.75
2022-09-20T16:06:24.048Z,98865.59
2022-09-20T16:08:51.592Z,98864.91
2022-09-20T16:11:22.913Z,98867.97
2022-09-20T16:13:57.966Z,98874.09
2022-09-20T16:16:26.345Z,98872.44
2022-09-20T16:19:11.951Z,98871.31
2022-09-20T16:21:40.506Z,98869.03
2022-09-20T16:24:08.159Z,98874.28
2022-09-20T16:26:35.918Z,98874.06
2022-09-20T16:29:07.546Z,98872.88
2022-09-20T16:31:42.393Z,98874.31
2022-09-20T16:34:32.493Z,98873.91
2022-09-20T16:37:12.064Z,98870.28
2022-09-20T16:39:38.766Z,98884.19
2022-09-20T16:42:09.167Z,98886.53
2022-09-20T16:44:38.258Z,98884.91
2022-09-20T16:47:08.113Z,98890.53
2022-09-20T16:49:36.294Z,98888.28
2022-09-20T16:52:06.617Z,98888.72
2022-09-20T16:54:33.926Z,98881.22
2022-09-20T16:57:00.822Z,98890.88
2022-09-20T16:59:27.515Z,98888.28
2022-09-20T17:01:55.155Z,98892.06
2022-09-20T17:04:21.881Z,98896.88
2022-09-20T17:06:49.822Z,98896.03
2022-09-20T17:09:16.848Z,98900.91
2022-09-20T17:11:49.614Z,98901.34
2022-09-20T17:14:19.285Z,98898.94
2022-09-20T17:16:49.218Z,98901.38
2022-09-20T17:19:18.616Z,98905.31
2022-09-20T17:21:50.135Z,98900.41
2022-09-20T17:24:19.034Z,98914.78
2022-09-20T17:26:45.904Z,98916.06
2022-09-20T17:29:15.427Z,98919.41
2022-09-20T17:31:44.289Z,98922.28
2022-09-20T17:34:12.266Z,98929.50
2022-09-20T17:36:42.284Z,98922.28
2022-09-20T17:39:13.027Z,98929.53
2022-09-20T17:41:41.279Z,98933.63
2022-09-20T17:44:11.988Z,98931.66
2022-09-20T17:46:43.410Z,98929.63
2022-09-20T17:49:15.284Z,98934.34
2022-09-20T17:51:44.260Z,98943.00
2022-09-20T17:54:14.470Z,98945.84
2022-09-20T17:56:46.497Z,98945.72
2022-09-20T17:59:16.250Z,98952.97
2022-09-20T18:01:44.569Z,98956.31
2022-09-20T18:04:12.088Z,98956.63
2022-09-20T18:06:47.090Z,98959.69
2022-09-20T18:09:18.846Z,98958.91
2022-09-20T18:11:50.657Z,98966.00
2022-09-20T18:14:20.431Z,98964.09
2022-09-20T18:16:47.248Z,98967.88
2022-09-20T18:19:16.085Z,98969.47
2022-09-20T18:21:42.982Z,98977.81
2022-09-20T18:24:11.260Z,98971.28
2022-09-20T18:26:38.924Z,98970.47
2022-09-20T18:29:12.313Z,98985.38
2022-09-20T18:31:43.140Z,98984.97
2022-09-20T18:34:18.141Z,98988.28
2022-09-20T18:36:53.173Z,98986.59
2022-09-20T18:39:24.319Z,98993.44
2022-09-20T18:41:51.494Z,98994.41
2022-09-20T18:44:18.663Z,98997.22
2022-09-20T18:46:46.479Z,99001.06
2022-09-20T18:49:14.961Z,99008.72
2022-09-20T18:51:43.040Z,99008.28
2022-09-20T18:54:11.100Z,99006.34
2022-09-20T18:56:39.423Z,99008.97
2022-09-20T18:59:23.011Z,99020.78
2022-09-20T19:02:16.137Z,99015.78
2022-09-20T19:04:58.064Z,99027.31
2022-09-20T19:07:27.667Z,99024.97
2022-09-20T19:10:06.173Z,99030.06
2022-09-20T19:12:59.984Z,99035.50
2022-09-20T19:15:55.691Z,99034.75
2022-09-20T19:18:24.223Z,99039.59
2022-09-20T19:21:17.039Z,99040.19
2022-09-20T19:24:04.994Z,99043.78
2022-09-20T19:26:38.189Z,99049.06
2022-09-20T19:29:21.667Z,99052.69
2022-09-20T19:31:50.756Z,99051.53
2022-09-20T19:34:23.296Z,99057.09
2022-09-20T19:37:18.703Z,99061.09
2022-09-20T19:40:09.015Z,99065.56
2022-09-20T19:43:16.779Z,99059.50
2022-09-20T19:46:14.451Z,99062.97
2022-09-20T19:48:48.322Z,99074.06
2022-09-20T19:51:17.064Z,99073.97
2022-09-20T19:53:43.906Z,99068.03
2022-09-20T19:56:28.056Z,99074.00
2022-09-20T19:58:56.143Z,99068.53
2022-09-20T20:01:24.560Z,99064.50
2022-09-20T20:03:54.512Z,99077.50
2022-09-20T20:06:32.932Z,99070.28
2022-09-20T20:09:08.731Z,99082.19
2022-09-20T20:11:47.341Z,99074.41
2022-09-20T20:14:21.483Z,99069.06
2022-09-20T20:17:10.941Z,99069.53
2022-09-20T20:19:50.822Z,99069.78
2022-09-20T20:22:47.868Z,99079.94
2022-09-20T20:25:40.574Z,99079.06
2022-09-20T20:28:07.838Z,99084.44
2022-09-20T20:30:34.812Z,99083.03
2022-09-20T20:33:04.123Z,99083.88
2022-09-20T20:35:30.902Z,99084.78
2022-09-20T20:37:58.158Z,99093.06
2022-09-20T20:40:24.947Z,99092.88
2022-09-20T20:43:02.081Z,99092.63
2022-09-20T20:45:29.880Z,99090.69
2022-09-20T20:47:59.914Z,99093.50
2022-09-20T20:50:28.086Z,99090.00
2022-09-20T20:52:56.332Z,99090.09
2022-09-20T20:55:23.781Z,99098.63
2022-09-20T20:57:58.165Z,99097.31
2022-09-20T21:00:26.298Z,99105.72
2022-09-20T21:02:58.403Z,99101.00
2022-09-20T21:05:26.059Z,99097.19
2022-09-20T21:07:53.167Z,99093.84
2022-09-20T21:10:19.829Z,99083.41
2022-09-20T21:12:46.544Z,99094.69
2022-09-20T21:15:15.475Z,99093.41
2022-09-20T21:17:42.138Z,99092.66
2022-09-20T21:20:09.695Z,99097.47
2022-09-20T21:22:38.319Z,99098.44
2022-09-20T21:25:07.594Z,99107.31
2022-09-20T21:27:37.064Z,99097.88
2022-09-20T21:30:05.052Z,99107.69
2022-09-20T21:32:31.727Z,99103.94
2022-09-20T21:34:58.485Z,99106.47
2022-09-20T21:37:25.211Z,99112.22
2022-09-20T21:39:52.285Z,99104.78
2022-09-20T21:42:18.909Z,99108.03
2022-09-20T21:44:45.686Z,99105.41
2022-09-20T21:47:18.934Z,99107.44
2022-09-20T21:49:45.771Z,99108.75
2022-09-20T21:52:12.422Z,99101.44
2022-09-20T21:54:39.081Z,99097.97
2022-09-20T21:57:05.965Z,99105.53
2022-09-20T21:59:32.648Z,99103.84
2022-09-20T22:01:59.263Z,99104.91
2022-09-20T22:04:27.484Z,99108.03
2022-09-20T22:06:54.138Z,99106.47
2022-09-20T22:09:20.815Z,99102.16
2022-09-20T22:11:48.722Z,99104.78
2022-09-20T22:14:17.469Z,99100.00
2022-09-20T22:16:45.263Z,99100.00
2022-09-20T22:19:13.993Z,99098.28
2022-09-20T22:21:45.434Z,99100.19
2022-09-20T22:24:13.672Z,99099.47
2022-09-20T22:26:50.696Z,99092.63
2022-09-20T22:29:17.719Z,99093.84
2022-09-20T22:31:45.762Z,99095.75
2022-09-20T22:34:23.704Z,99092.03
2022-09-20T22:36:50.525Z,99095.16
2022-09-20T22:39:17.284Z,99097.31
2022-09-20T22:41:44.572Z,99089.56
2022-09-20T22:44:11.624Z,99086.00
2022-09-20T22:46:38.889Z,99092.25
2022-09-20T22:49:06.517Z,99090.88
2022-09-20T22:51:33.597Z,99091.16
2022-09-20T22:54:01.097Z,99099.91
2022-09-20T22:56:29.909Z,99100.00
2022-09-20T22:59:03.272Z,99108.13
2022-09-20T23:01:34.254Z,99094.50
2022-09-20T23:04:07.870Z,99103.34
2022-09-20T23:06:38.640Z,99099.75
2022-09-20T23:09:08.180Z,99102.88
2022-09-20T23:11:35.683Z,99107.66
2022-09-20T23:14:05.143Z,99103.22
2022-09-20T23:16:36.538Z,99098.28
2022-09-20T23:19:04.830Z,99105.22
2022-09-20T23:21:32.492Z,99104.44
2022-09-20T23:24:01.424Z,99104.56
2022-09-20T23:26:29.938Z,99102.03
2022-09-20T23:29:07.925Z,99102.88
2022-09-20T23:31:36.523Z,99110.66
2022-09-20T23:34:04.854Z,99105.75
2022-09-20T23:36:33.308Z,99111.84
2022-09-20T23:39:00.041Z,99105.63
2022-09-20T23:41:28.077Z,99105.75
2022-09-20T23:43:55.378Z,99115.94
2022-09-20T23:46:23.370Z,99112.44
2022-09-20T23:48:53.262Z,99105.50
2022-09-20T23:51:23.927Z,99114.72
2022-09-20T23:53:51.797Z,99107.06
2022-09-20T23:56:19.582Z,99103.13
2022-09-20T23:58:46.559Z,99101.75
